sensor_id;sensor_type;location;lat;lon;timestamp;pressure;altitude;pressure_sealevel;temperature
73734;BMP280;62039;50.000;9.064;2023-03-11T00:01:35;99145.66;;;1.98
73734;BMP280;62039;50.000;9.064;2023-03-11T00:04:01;99155.13;;;1.97
73734;BMP280;62039;50.000;9.064;2023-03-11T00:06:28;99153.66;;;1.94
73734;BMP280;62039;50.000;9.064;2023-03-11T00:08:54;99163.25;;;1.92
73734;BMP280;62039;50.000;9.064;2023-03-11T00:11:22;99165.31;;;1.89
73734;BMP280;62039;50.000;9.064;2023-03-11T00:13:49;99161.22;;;1.86
73734;BMP280;62039;50.000;9.064;2023-03-11T00:16:15;99175.97;;;1.84
73734;BMP280;62039;50.000;9.064;2023-03-11T00:18:42;99152.97;;;1.83
73734;BMP280;62039;50.000;9.064;2023-03-11T00:21:13;99163.50;;;1.80
73734;BMP280;62039;50.000;9.064;2023-03-11T00:23:40;99170.69;;;1.76
73734;BMP280;62039;50.000;9.064;2023-03-11T00:26:07;99175.84;;;1.76
73734;BMP280;62039;50.000;9.064;2023-03-11T00:28:35;99201.59;;;1.76
73734;BMP280;62039;50.000;9.064;2023-03-11T00:31:02;99201.84;;;1.73
73734;BMP280;62039;50.000;9.064;2023-03-11T00:33:28;99201.31;;;1.70
73734;BMP280;62039;50.000;9.064;2023-03-11T00:35:55;99202.38;;;1.67
73734;BMP280;62039;50.000;9.064;2023-03-11T00:38:22;99206.81;;;1.65
73734;BMP280;62039;50.000;9.064;2023-03-11T00:40:49;99205.19;;;1.64
73734;BMP280;62039;50.000;9.064;2023-03-11T00:43:16;99207.09;;;1.62
73734;BMP280;62039;50.000;9.064;2023-03-11T00:45:44;99203.81;;;1.60
73734;BMP280;62039;50.000;9.064;2023-03-11T00:48:11;99202.47;;;1.56
73734;BMP280;62039;50.000;9.064;2023-03-11T00:50:39;99216.41;;;1.53
73734;BMP280;62039;50.000;9.064;2023-03-11T00:53:06;99208.09;;;1.50
73734;BMP280;62039;50.000;9.064;2023-03-11T00:55:34;99213.25;;;1.50
73734;BMP280;62039;50.000;9.064;2023-03-11T00:58:02;99227.91;;;1.49
73734;BMP280;62039;50.000;9.064;2023-03-11T01:00:30;99229.50;;;1.50
73734;BMP280;62039;50.000;9.064;2023-03-11T01:02:59;99236.41;;;1.50
73734;BMP280;62039;50.000;9.064;2023-03-11T01:05:27;99236.41;;;1.50
73734;BMP280;62039;50.000;9.064;2023-03-11T01:07:54;99251.06;;;1.49
73734;BMP280;62039;50.000;9.064;2023-03-11T01:10:20;99257.69;;;1.52
73734;BMP280;62039;50.000;9.064;2023-03-11T01:12:47;99262.59;;;1.55
73734;BMP280;62039;50.000;9.064;2023-03-11T01:15:18;99272.50;;;1.60
73734;BMP280;62039;50.000;9.064;2023-03-11T01:17:45;99272.25;;;1.63
73734;BMP280;62039;50.000;9.064;2023-03-11T01:20:13;99274.69;;;1.64
73734;BMP280;62039;50.000;9.064;2023-03-11T01:22:40;99277.16;;;1.66
73734;BMP280;62039;50.000;9.064;2023-03-11T01:25:08;99274.56;;;1.66
73734;BMP280;62039;50.000;9.064;2023-03-11T01:27:35;99280.28;;;1.69
73734;BMP280;62039;50.000;9.064;2023-03-11T01:30:03;99277.72;;;1.69
73734;BMP280;62039;50.000;9.064;2023-03-11T01:32:29;99284.63;;;1.69
73734;BMP280;62039;50.000;9.064;2023-03-11T01:34:56;99274.31;;;1.69
73734;BMP280;62039;50.000;9.064;2023-03-11T01:37:24;99280.28;;;1.69
73734;BMP280;62039;50.000;9.064;2023-03-11T01:39:51;99275.81;;;1.71
73734;BMP280;62039;50.000;9.064;2023-03-11T01:42:17;99278.25;;;1.73
73734;BMP280;62039;50.000;9.064;2023-03-11T01:44:44;99270.53;;;1.73
73734;BMP280;62039;50.000;9.064;2023-03-11T01:47:34;99269.03;;;1.70
73734;BMP280;62039;50.000;9.064;2023-03-11T01:50:04;99277.03;;;1.67
73734;BMP280;62039;50.000;9.064;2023-03-11T01:52:33;99272.00;;;1.66
73734;BMP280;62039;50.000;9.064;2023-03-11T01:54:59;99278.19;;;1.63
73734;BMP280;62039;50.000;9.064;2023-03-11T01:57:26;99275.63;;;1.63
73734;BMP280;62039;50.000;9.064;2023-03-11T01:59:55;99280.78;;;1.63
73734;BMP280;62039;50.000;9.064;2023-03-11T02:02:27;99282.69;;;1.61
73734;BMP280;62039;50.000;9.064;2023-03-11T02:04:57;99285.50;;;1.58
73734;BMP280;62039;50.000;9.064;2023-03-11T02:07:25;99295.13;;;1.56
73734;BMP280;62039;50.000;9.064;2023-03-11T02:09:53;99300.28;;;1.56
73734;BMP280;62039;50.000;9.064;2023-03-11T02:12:20;99299.56;;;1.54
73734;BMP280;62039;50.000;9.064;2023-03-11T02:14:48;99317.47;;;1.56
73734;BMP280;62039;50.000;9.064;2023-03-11T02:17:16;99317.31;;;1.57
73734;BMP280;62039;50.000;9.064;2023-03-11T02:19:58;99311.38;;;1.57
73734;BMP280;62039;50.000;9.064;2023-03-11T02:22:28;99311.25;;;1.58
73734;BMP280;62039;50.000;9.064;2023-03-11T02:25:02;99307.72;;;1.59
73734;BMP280;62039;50.000;9.064;2023-03-11T02:27:33;99317.91;;;1.61
73734;BMP280;62039;50.000;9.064;2023-03-11T02:30:02;99305.03;;;1.61
73734;BMP280;62039;50.000;9.064;2023-03-11T02:32:28;99316.38;;;1.58
73734;BMP280;62039;50.000;9.064;2023-03-11T02:34:55;99315.56;;;1.58
73734;BMP280;62039;50.000;9.064;2023-03-11T02:37:22;99320.72;;;1.58
73734;BMP280;62039;50.000;9.064;2023-03-11T02:39:50;99324.22;;;1.57
73734;BMP280;62039;50.000;9.064;2023-03-11T02:42:19;99320.06;;;1.56
73734;BMP280;62039;50.000;9.064;2023-03-11T02:44:57;99316.66;;;1.55
73734;BMP280;62039;50.000;9.064;2023-03-11T02:47:25;99319.09;;;1.57
73734;BMP280;62039;50.000;9.064;2023-03-11T02:49:53;99327.50;;;1.59
73734;BMP280;62039;50.000;9.064;2023-03-11T02:52:22;99328.31;;;1.59
73734;BMP280;62039;50.000;9.064;2023-03-11T02:54:48;99329.13;;;1.60
73734;BMP280;62039;50.000;9.064;2023-03-11T02:57:15;99326.69;;;1.58
73734;BMP280;62039;50.000;9.064;2023-03-11T02:59:41;99331.84;;;1.58
73734;BMP280;62039;50.000;9.064;2023-03-11T03:02:10;99330.19;;;1.57
73734;BMP280;62039;50.000;9.064;2023-03-11T03:04:36;99332.91;;;1.56
73734;BMP280;62039;50.000;9.064;2023-03-11T03:07:03;99328.84;;;1.53
73734;BMP280;62039;50.000;9.064;2023-03-11T03:09:30;99333.16;;;1.52
73734;BMP280;62039;50.000;9.064;2023-03-11T03:11:56;99345.91;;;1.54
73734;BMP280;62039;50.000;9.064;2023-03-11T03:14:23;99342.13;;;1.58
73734;BMP280;62039;50.000;9.064;2023-03-11T03:16:49;99349.75;;;1.60
73734;BMP280;62039;50.000;9.064;2023-03-11T03:19:17;99354.75;;;1.61
73734;BMP280;62039;50.000;9.064;2023-03-11T03:21:44;99355.81;;;1.59
73734;BMP280;62039;50.000;9.064;2023-03-11T03:24:11;99349.75;;;1.60
73734;BMP280;62039;50.000;9.064;2023-03-11T03:26:38;99357.34;;;1.61
73734;BMP280;62039;50.000;9.064;2023-03-11T03:29:04;99369.00;;;1.65
73734;BMP280;62039;50.000;9.064;2023-03-11T03:31:31;99375.78;;;1.66
73734;BMP280;62039;50.000;9.064;2023-03-11T03:33:57;99379.06;;;1.68
73734;BMP280;62039;50.000;9.064;2023-03-11T03:36:25;99381.53;;;1.70
73734;BMP280;62039;50.000;9.064;2023-03-11T03:38:53;99378.81;;;1.71
73734;BMP280;62039;50.000;9.064;2023-03-11T03:41:20;99380.44;;;1.72
73734;BMP280;62039;50.000;9.064;2023-03-11T03:43:46;99383.84;;;1.73
73734;BMP280;62039;50.000;9.064;2023-03-11T03:46:13;99376.22;;;1.71
73734;BMP280;62039;50.000;9.064;2023-03-11T03:48:40;99377.03;;;1.72
73734;BMP280;62039;50.000;9.064;2023-03-11T03:51:08;99386.66;;;1.70
73734;BMP280;62039;50.000;9.064;2023-03-11T03:53:36;99392.06;;;1.67
73734;BMP280;62039;50.000;9.064;2023-03-11T03:56:03;99393.13;;;1.64
73734;BMP280;62039;50.000;9.064;2023-03-11T03:58:30;99389.88;;;1.62
73734;BMP280;62039;50.000;9.064;2023-03-11T04:00:57;99390.81;;;1.61
73734;BMP280;62039;50.000;9.064;2023-03-11T04:03:24;99396.78;;;1.62
73734;BMP280;62039;50.000;9.064;2023-03-11T04:05:52;99393.38;;;1.61
73734;BMP280;62039;50.000;9.064;2023-03-11T04:08:19;99401.91;;;1.62
73734;BMP280;62039;50.000;9.064;2023-03-11T04:10:56;99409.75;;;1.60
73734;BMP280;62039;50.000;9.064;2023-03-11T04:13:23;99402.97;;;1.59
73734;BMP280;62039;50.000;9.064;2023-03-11T04:15:49;99415.72;;;1.61
73734;BMP280;62039;50.000;9.064;2023-03-11T04:18:17;99417.50;;;1.60
73734;BMP280;62039;50.000;9.064;2023-03-11T04:20:43;99414.91;;;1.60
73734;BMP280;62039;50.000;9.064;2023-03-11T04:23:10;99419.78;;;1.63
73734;BMP280;62039;50.000;9.064;2023-03-11T04:25:36;99423.06;;;1.65
73734;BMP280;62039;50.000;9.064;2023-03-11T04:28:04;99422.03;;;1.68
73734;BMP280;62039;50.000;9.064;2023-03-11T04:30:31;99420.25;;;1.68
73734;BMP280;62039;50.000;9.064;2023-03-11T04:32:58;99419.56;;;1.66
73734;BMP280;62039;50.000;9.064;2023-03-11T04:35:24;99416.16;;;1.66
73734;BMP280;62039;50.000;9.064;2023-03-11T04:37:51;99412.06;;;1.63
73734;BMP280;62039;50.000;9.064;2023-03-11T04:40:18;99422.38;;;1.63
73734;BMP280;62039;50.000;9.064;2023-03-11T04:42:44;99422.38;;;1.63
73734;BMP280;62039;50.000;9.064;2023-03-11T04:45:12;99430.69;;;1.67
73734;BMP280;62039;50.000;9.064;2023-03-11T04:47:39;99426.34;;;1.67
73734;BMP280;62039;50.000;9.064;2023-03-11T04:50:06;99434.78;;;1.69
73734;BMP280;62039;50.000;9.064;2023-03-11T04:52:33;99432.88;;;1.71
73734;BMP280;62039;50.000;9.064;2023-03-11T04:54:59;99431.69;;;1.75
73734;BMP280;62039;50.000;9.064;2023-03-11T04:57:26;99438.50;;;1.76
73734;BMP280;62039;50.000;9.064;2023-03-11T04:59:52;99445.25;;;1.77
73734;BMP280;62039;50.000;9.064;2023-03-11T05:02:20;99440.91;;;1.78
73734;BMP280;62039;50.000;9.064;2023-03-11T05:04:47;99449.47;;;1.78
73734;BMP280;62039;50.000;9.064;2023-03-11T05:07:13;99451.22;;;1.78
73734;BMP280;62039;50.000;9.064;2023-03-11T05:09:40;99445.25;;;1.77
73734;BMP280;62039;50.000;9.064;2023-03-11T05:12:09;99457.19;;;1.78
73734;BMP280;62039;50.000;9.064;2023-03-11T05:14:36;99455.44;;;1.79
73734;BMP280;62039;50.000;9.064;2023-03-11T05:17:03;99462.34;;;1.78
73734;BMP280;62039;50.000;9.064;2023-03-11T05:19:31;99456.25;;;1.79
73734;BMP280;62039;50.000;9.064;2023-03-11T05:21:58;99458.81;;;1.79
73734;BMP280;62039;50.000;9.064;2023-03-11T05:24:24;99466.44;;;1.81
73734;BMP280;62039;50.000;9.064;2023-03-11T05:26:51;99468.88;;;1.82
73734;BMP280;62039;50.000;9.064;2023-03-11T05:29:18;99475.53;;;1.85
73734;BMP280;62039;50.000;9.064;2023-03-11T05:31:45;99474.59;;;1.86
73734;BMP280;62039;50.000;9.064;2023-03-11T05:34:12;99477.06;;;1.87
73734;BMP280;62039;50.000;9.064;2023-03-11T05:36:41;99483.69;;;1.90
73734;BMP280;62039;50.000;9.064;2023-03-11T05:39:08;99480.19;;;1.91
73734;BMP280;62039;50.000;9.064;2023-03-11T05:41:35;99476.78;;;1.90
73734;BMP280;62039;50.000;9.064;2023-03-11T05:44:01;99478.44;;;1.91
73734;BMP280;62039;50.000;9.064;2023-03-11T05:46:28;99476.56;;;1.93
73734;BMP280;62039;50.000;9.064;2023-03-11T05:48:55;99480.88;;;1.93
73734;BMP280;62039;50.000;9.064;2023-03-11T05:51:21;99493.66;;;1.94
73734;BMP280;62039;50.000;9.064;2023-03-11T05:53:49;99505.59;;;1.96
73734;BMP280;62039;50.000;9.064;2023-03-11T05:56:18;99503.94;;;1.94
73734;BMP280;62039;50.000;9.064;2023-03-11T05:58:45;99499.63;;;1.95
73734;BMP280;62039;50.000;9.064;2023-03-11T06:01:13;99501.38;;;1.94
73734;BMP280;62039;50.000;9.064;2023-03-11T06:03:40;99514.25;;;1.94
73734;BMP280;62039;50.000;9.064;2023-03-11T06:06:10;99502.31;;;1.93
73734;BMP280;62039;50.000;9.064;2023-03-11T06:08:37;99506.75;;;1.91
73734;BMP280;62039;50.000;9.064;2023-03-11T06:11:06;99517.06;;;1.91
73734;BMP280;62039;50.000;9.064;2023-03-11T06:13:33;99517.06;;;1.91
73734;BMP280;62039;50.000;9.064;2023-03-11T06:16:00;99519.75;;;1.90
73734;BMP280;62039;50.000;9.064;2023-03-11T06:18:27;99524.13;;;1.89
73734;BMP280;62039;50.000;9.064;2023-03-11T06:20:57;99526.53;;;1.91
73734;BMP280;62039;50.000;9.064;2023-03-11T06:23:25;99535.34;;;1.88
73734;BMP280;62039;50.000;9.064;2023-03-11T06:25:55;99528.44;;;1.89
73734;BMP280;62039;50.000;9.064;2023-03-11T06:28:23;99540.50;;;1.88
73734;BMP280;62039;50.000;9.064;2023-03-11T06:30:49;99540.50;;;1.88
73734;BMP280;62039;50.000;9.064;2023-03-11T06:33:16;99528.56;;;1.87
73734;BMP280;62039;50.000;9.064;2023-03-11T06:35:43;99541.44;;;1.87
73734;BMP280;62039;50.000;9.064;2023-03-11T06:38:09;99548.34;;;1.87
73734;BMP280;62039;50.000;9.064;2023-03-11T06:40:36;99549.16;;;1.87
73734;BMP280;62039;50.000;9.064;2023-03-11T06:43:03;99557.00;;;1.86
73734;BMP280;62039;50.000;9.064;2023-03-11T06:45:31;99559.47;;;1.87
73734;BMP280;62039;50.000;9.064;2023-03-11T06:47:58;99563.91;;;1.85
73734;BMP280;62039;50.000;9.064;2023-03-11T06:50:24;99570.81;;;1.85
73734;BMP280;62039;50.000;9.064;2023-03-11T06:52:51;99569.06;;;1.85
73734;BMP280;62039;50.000;9.064;2023-03-11T06:55:17;99578.66;;;1.83
73734;BMP280;62039;50.000;9.064;2023-03-11T06:57:44;99584.78;;;1.82
73734;BMP280;62039;50.000;9.064;2023-03-11T07:00:11;99580.56;;;1.81
73734;BMP280;62039;50.000;9.064;2023-03-11T07:02:39;99594.38;;;1.80
73734;BMP280;62039;50.000;9.064;2023-03-11T07:05:06;99594.88;;;1.74
73734;BMP280;62039;50.000;9.064;2023-03-11T07:07:33;99596.38;;;1.66
73734;BMP280;62039;50.000;9.064;2023-03-11T07:10:00;99601.31;;;1.58
73734;BMP280;62039;50.000;9.064;2023-03-11T07:12:26;99608.69;;;1.51
73734;BMP280;62039;50.000;9.064;2023-03-11T07:14:54;99610.81;;;1.46
73734;BMP280;62039;50.000;9.064;2023-03-11T07:17:20;99620.66;;;1.41
73734;BMP280;62039;50.000;9.064;2023-03-11T07:19:49;99626.13;;;1.36
73734;BMP280;62039;50.000;9.064;2023-03-11T07:22:16;99618.78;;;1.32
73734;BMP280;62039;50.000;9.064;2023-03-11T07:24:44;99620.06;;;1.26
73734;BMP280;62039;50.000;9.064;2023-03-11T07:27:11;99623.69;;;1.24
73734;BMP280;62039;50.000;9.064;2023-03-11T07:29:38;99632.22;;;1.24
73734;BMP280;62039;50.000;9.064;2023-03-11T07:32:06;99637.25;;;1.26
73734;BMP280;62039;50.000;9.064;2023-03-11T07:34:32;99641.47;;;1.27
73734;BMP280;62039;50.000;9.064;2023-03-11T07:37:01;99646.38;;;1.30
73734;BMP280;62039;50.000;9.064;2023-03-11T07:39:27;99654.22;;;1.28
73734;BMP280;62039;50.000;9.064;2023-03-11T07:41:54;99658.56;;;1.28
73734;BMP280;62039;50.000;9.064;2023-03-11T07:44:20;99663.09;;;1.24
73734;BMP280;62039;50.000;9.064;2023-03-11T07:46:47;99668.50;;;1.21
73734;BMP280;62039;50.000;9.064;2023-03-11T07:49:14;99673.03;;;1.18
73734;BMP280;62039;50.000;9.064;2023-03-11T07:51:40;99674.22;;;1.13
73734;BMP280;62039;50.000;9.064;2023-03-11T07:54:09;99682.16;;;1.10
73734;BMP280;62039;50.000;9.064;2023-03-11T07:56:36;99689.19;;;1.08
73734;BMP280;62039;50.000;9.064;2023-03-11T07:59:03;99685.91;;;1.06
73734;BMP280;62039;50.000;9.064;2023-03-11T08:01:31;99694.44;;;1.07
73734;BMP280;62039;50.000;9.064;2023-03-11T08:03:58;99692.56;;;1.09
73734;BMP280;62039;50.000;9.064;2023-03-11T08:06:26;99700.16;;;1.10
73734;BMP280;62039;50.000;9.064;2023-03-11T08:08:53;99702.50;;;1.13
73734;BMP280;62039;50.000;9.064;2023-03-11T08:11:22;99693.88;;;1.14
73734;BMP280;62039;50.000;9.064;2023-03-11T08:13:49;99705.09;;;1.13
73734;BMP280;62039;50.000;9.064;2023-03-11T08:16:19;99720.53;;;1.13
73734;BMP280;62039;50.000;9.064;2023-03-11T08:18:46;99715.38;;;1.13
73734;BMP280;62039;50.000;9.064;2023-03-11T08:21:14;99716.19;;;1.14
73734;BMP280;62039;50.000;9.064;2023-03-11T08:23:41;99721.25;;;1.16
73734;BMP280;62039;50.000;9.064;2023-03-11T08:26:09;99716.56;;;1.21
73734;BMP280;62039;50.000;9.064;2023-03-11T08:28:38;99715.38;;;1.25
73734;BMP280;62039;50.000;9.064;2023-03-11T08:31:11;99723.56;;;1.30
73734;BMP280;62039;50.000;9.064;2023-03-11T08:33:38;99722.31;;;1.35
73734;BMP280;62039;50.000;9.064;2023-03-11T08:36:05;99727.94;;;1.40
73734;BMP280;62039;50.000;9.064;2023-03-11T08:38:32;99734.25;;;1.47
73734;BMP280;62039;50.000;9.064;2023-03-11T08:40:59;99729.47;;;1.54
73734;BMP280;62039;50.000;9.064;2023-03-11T08:43:25;99741.88;;;1.60
73734;BMP280;62039;50.000;9.064;2023-03-11T08:45:53;99746.56;;;1.66
73734;BMP280;62039;50.000;9.064;2023-03-11T08:48:20;99752.88;;;1.73
73734;BMP280;62039;50.000;9.064;2023-03-11T08:50:47;99758.38;;;1.80
73734;BMP280;62039;50.000;9.064;2023-03-11T08:53:20;99756.88;;;1.88
73734;BMP280;62039;50.000;9.064;2023-03-11T08:55:48;99756.38;;;1.94
73734;BMP280;62039;50.000;9.064;2023-03-11T08:58:14;99759.19;;;2.03
73734;BMP280;62039;50.000;9.064;2023-03-11T09:00:41;99756.81;;;2.11
73734;BMP280;62039;50.000;9.064;2023-03-11T09:03:09;99759.44;;;2.22
73734;BMP280;62039;50.000;9.064;2023-03-11T09:05:36;99765.75;;;2.29
73734;BMP280;62039;50.000;9.064;2023-03-11T09:08:03;99764.19;;;2.38
73734;BMP280;62039;50.000;9.064;2023-03-11T09:10:31;99750.97;;;2.42
73734;BMP280;62039;50.000;9.064;2023-03-11T09:12:58;99746.03;;;2.50
73734;BMP280;62039;50.000;9.064;2023-03-11T09:15:24;99747.03;;;2.59
73734;BMP280;62039;50.000;9.064;2023-03-11T09:17:51;99742.78;;;2.69
73734;BMP280;62039;50.000;9.064;2023-03-11T09:20:19;99751.53;;;2.78
73734;BMP280;62039;50.000;9.064;2023-03-11T09:22:46;99758.09;;;2.82
73734;BMP280;62039;50.000;9.064;2023-03-11T09:25:12;99756.06;;;2.85
73734;BMP280;62039;50.000;9.064;2023-03-11T09:27:39;99758.28;;;2.90
73734;BMP280;62039;50.000;9.064;2023-03-11T09:30:07;99770.00;;;2.94
73734;BMP280;62039;50.000;9.064;2023-03-11T09:32:34;99767.41;;;2.94
73734;BMP280;62039;50.000;9.064;2023-03-11T09:35:01;99769.75;;;2.97
73734;BMP280;62039;50.000;9.064;2023-03-11T09:37:29;99760.09;;;2.99
73734;BMP280;62039;50.000;9.064;2023-03-11T09:39:55;99764.09;;;3.03
73734;BMP280;62039;50.000;9.064;2023-03-11T09:42:30;99764.78;;;3.05
73734;BMP280;62039;50.000;9.064;2023-03-11T09:45:03;99761.94;;;3.08
73734;BMP280;62039;50.000;9.064;2023-03-11T09:47:37;99760.50;;;3.15
73734;BMP280;62039;50.000;9.064;2023-03-11T09:50:13;99769.38;;;3.22
73734;BMP280;62039;50.000;9.064;2023-03-11T09:52:45;99762.34;;;3.24
73734;BMP280;62039;50.000;9.064;2023-03-11T09:55:32;99757.84;;;3.26
73734;BMP280;62039;50.000;9.064;2023-03-11T09:58:03;99763.72;;;3.28
73734;BMP280;62039;50.000;9.064;2023-03-11T10:00:32;99768.75;;;3.30
73734;BMP280;62039;50.000;9.064;2023-03-11T10:03:01;99764.16;;;3.33
73734;BMP280;62039;50.000;9.064;2023-03-11T10:05:28;99750.06;;;3.37
73734;BMP280;62039;50.000;9.064;2023-03-11T10:08:01;99749.41;;;3.45
73734;BMP280;62039;50.000;9.064;2023-03-11T10:10:32;99760.72;;;3.53
73734;BMP280;62039;50.000;9.064;2023-03-11T10:13:07;99751.41;;;3.62
73734;BMP280;62039;50.000;9.064;2023-03-11T10:15:41;99749.81;;;3.71
73734;BMP280;62039;50.000;9.064;2023-03-11T10:18:25;99764.13;;;3.75
73734;BMP280;62039;50.000;9.064;2023-03-11T10:20:59;99758.44;;;3.81
73734;BMP280;62039;50.000;9.064;2023-03-11T10:23:31;99768.53;;;3.84
73734;BMP280;62039;50.000;9.064;2023-03-11T10:26:08;99770.97;;;3.85
73734;BMP280;62039;50.000;9.064;2023-03-11T10:28:40;99778.59;;;3.87
73734;BMP280;62039;50.000;9.064;2023-03-11T10:31:17;99779.41;;;3.87
73734;BMP280;62039;50.000;9.064;2023-03-11T10:33:46;99773.81;;;3.82
73734;BMP280;62039;50.000;9.064;2023-03-11T10:36:18;99773.81;;;3.82
73734;BMP280;62039;50.000;9.064;2023-03-11T10:38:48;99775.59;;;3.82
73734;BMP280;62039;50.000;9.064;2023-03-11T10:41:18;99774.88;;;3.80
73734;BMP280;62039;50.000;9.064;2023-03-11T10:43:50;99776.53;;;3.81
73734;BMP280;62039;50.000;9.064;2023-03-11T10:46:19;99781.00;;;3.79
73734;BMP280;62039;50.000;9.064;2023-03-11T10:48:48;99776.09;;;3.76
73734;BMP280;62039;50.000;9.064;2023-03-11T10:51:17;99782.22;;;3.75
73734;BMP280;62039;50.000;9.064;2023-03-11T10:53:46;99771.88;;;3.75
73734;BMP280;62039;50.000;9.064;2023-03-11T10:56:24;99782.78;;;3.78
73734;BMP280;62039;50.000;9.064;2023-03-11T10:58:51;99769.59;;;3.81
73734;BMP280;62039;50.000;9.064;2023-03-11T11:01:17;99777.94;;;3.85
73734;BMP280;62039;50.000;9.064;2023-03-11T11:03:47;99778.47;;;3.88
73734;BMP280;62039;50.000;9.064;2023-03-11T11:06:20;99778.06;;;3.93
73734;BMP280;62039;50.000;9.064;2023-03-11T11:08:47;99781.94;;;3.99
73734;BMP280;62039;50.000;9.064;2023-03-11T11:11:20;99781.41;;;4.05
73734;BMP280;62039;50.000;9.064;2023-03-11T11:13:57;99786.03;;;4.11
73734;BMP280;62039;50.000;9.064;2023-03-11T11:16:24;99779.53;;;4.16
73734;BMP280;62039;50.000;9.064;2023-03-11T11:18:54;99789.09;;;4.25
73734;BMP280;62039;50.000;9.064;2023-03-11T11:21:28;99779.03;;;4.32
73734;BMP280;62039;50.000;9.064;2023-03-11T11:24:03;99781.22;;;4.37
73734;BMP280;62039;50.000;9.064;2023-03-11T11:26:31;99779.97;;;4.41
73734;BMP280;62039;50.000;9.064;2023-03-11T11:29:12;99777.56;;;4.49
73734;BMP280;62039;50.000;9.064;2023-03-11T11:31:41;99782.06;;;4.56
73734;BMP280;62039;50.000;9.064;2023-03-11T11:34:26;99780.44;;;4.65
73734;BMP280;62039;50.000;9.064;2023-03-11T11:36:53;99777.72;;;4.76
73734;BMP280;62039;50.000;9.064;2023-03-11T11:39:21;99778.81;;;4.83
73734;BMP280;62039;50.000;9.064;2023-03-11T11:41:49;99785.06;;;4.90
73734;BMP280;62039;50.000;9.064;2023-03-11T11:44:20;99777.47;;;4.98
73734;BMP280;62039;50.000;9.064;2023-03-11T11:46:51;99770.34;;;5.10
73734;BMP280;62039;50.000;9.064;2023-03-11T11:49:23;99769.97;;;5.24
73734;BMP280;62039;50.000;9.064;2023-03-11T11:51:54;99770.75;;;5.44
73734;BMP280;62039;50.000;9.064;2023-03-11T11:54:26;99766.44;;;5.62
73734;BMP280;62039;50.000;9.064;2023-03-11T11:56:54;99769.28;;;5.78
73734;BMP280;62039;50.000;9.064;2023-03-11T11:59:23;99775.63;;;5.94
73734;BMP280;62039;50.000;9.064;2023-03-11T12:01:58;99780.19;;;6.09
73734;BMP280;62039;50.000;9.064;2023-03-11T12:04:37;99768.13;;;6.18
73734;BMP280;62039;50.000;9.064;2023-03-11T12:07:28;99767.56;;;6.24
73734;BMP280;62039;50.000;9.064;2023-03-11T12:10:02;99768.59;;;6.31
73734;BMP280;62039;50.000;9.064;2023-03-11T12:12:57;99770.19;;;6.42
73734;BMP280;62039;50.000;9.064;2023-03-11T12:15:37;99765.47;;;6.55
73734;BMP280;62039;50.000;9.064;2023-03-11T12:18:10;99759.75;;;6.69
73734;BMP280;62039;50.000;9.064;2023-03-11T12:20:43;99764.75;;;6.80
73734;BMP280;62039;50.000;9.064;2023-03-11T12:23:18;99768.00;;;6.82
73734;BMP280;62039;50.000;9.064;2023-03-11T12:26:08;99764.53;;;6.74
73734;BMP280;62039;50.000;9.064;2023-03-11T12:28:39;99759.13;;;6.67
73734;BMP280;62039;50.000;9.064;2023-03-11T12:31:11;99759.41;;;6.64
73734;BMP280;62039;50.000;9.064;2023-03-11T12:33:40;99766.69;;;6.60
73734;BMP280;62039;50.000;9.064;2023-03-11T12:36:20;99764.66;;;6.54
73734;BMP280;62039;50.000;9.064;2023-03-11T12:38:48;99767.03;;;6.48
73734;BMP280;62039;50.000;9.064;2023-03-11T12:41:31;99765.69;;;6.44
73734;BMP280;62039;50.000;9.064;2023-03-11T12:44:19;99767.78;;;6.40
73734;BMP280;62039;50.000;9.064;2023-03-11T12:47:17;99764.50;;;6.38
73734;BMP280;62039;50.000;9.064;2023-03-11T12:49:45;99770.25;;;6.32
73734;BMP280;62039;50.000;9.064;2023-03-11T12:52:19;99761.09;;;6.28
73734;BMP280;62039;50.000;9.064;2023-03-11T12:54:46;99764.00;;;6.25
73734;BMP280;62039;50.000;9.064;2023-03-11T12:57:28;99764.28;;;6.22
73734;BMP280;62039;50.000;9.064;2023-03-11T13:00:12;99757.63;;;6.19
73734;BMP280;62039;50.000;9.064;2023-03-11T13:03:00;99767.31;;;6.17
73734;BMP280;62039;50.000;9.064;2023-03-11T13:05:49;99766.50;;;6.17
73734;BMP280;62039;50.000;9.064;2023-03-11T13:08:19;99765.16;;;6.13
73734;BMP280;62039;50.000;9.064;2023-03-11T13:10:47;99771.31;;;6.12
73734;BMP280;62039;50.000;9.064;2023-03-11T13:13:35;99761.06;;;6.10
73734;BMP280;62039;50.000;9.064;2023-03-11T13:16:35;99769.00;;;6.09
73734;BMP280;62039;50.000;9.064;2023-03-11T13:19:45;99772.84;;;6.05
73734;BMP280;62039;50.000;9.064;2023-03-11T13:22:41;99779.13;;;6.02
73734;BMP280;62039;50.000;9.064;2023-03-11T13:25:27;99772.47;;;6.00
73734;BMP280;62039;50.000;9.064;2023-03-11T13:27:59;99781.72;;;6.02
73734;BMP280;62039;50.000;9.064;2023-03-11T13:30:32;99785.94;;;6.03
73734;BMP280;62039;50.000;9.064;2023-03-11T13:33:20;99789.78;;;5.99
73734;BMP280;62039;50.000;9.064;2023-03-11T13:36:00;99779.69;;;5.96
73734;BMP280;62039;50.000;9.064;2023-03-11T13:38:44;99796.38;;;5.94
73734;BMP280;62039;50.000;9.064;2023-03-11T13:41:16;99796.63;;;5.91
73734;BMP280;62039;50.000;9.064;2023-03-11T13:43:47;99798.56;;;5.88
73734;BMP280;62039;50.000;9.064;2023-03-11T13:46:22;99810.56;;;5.89
73734;BMP280;62039;50.000;9.064;2023-03-11T13:49:02;99815.06;;;5.87
73734;BMP280;62039;50.000;9.064;2023-03-11T13:51:36;99815.06;;;5.87
73734;BMP280;62039;50.000;9.064;2023-03-11T13:54:06;99812.47;;;5.87
73734;BMP280;62039;50.000;9.064;2023-03-11T13:56:41;99815.06;;;5.87
73734;BMP280;62039;50.000;9.064;2023-03-11T13:59:14;99809.88;;;5.87
73734;BMP280;62039;50.000;9.064;2023-03-11T14:01:47;99810.03;;;5.86
73734;BMP280;62039;50.000;9.064;2023-03-11T14:04:19;99823.13;;;5.84
73734;BMP280;62039;50.000;9.064;2023-03-11T14:06:47;99823.41;;;5.81
73734;BMP280;62039;50.000;9.064;2023-03-11T14:09:18;99819.34;;;5.79
73734;BMP280;62039;50.000;9.064;2023-03-11T14:11:45;99828.19;;;5.76
73734;BMP280;62039;50.000;9.064;2023-03-11T14:14:28;99827.53;;;5.74
73734;BMP280;62039;50.000;9.064;2023-03-11T14:16:56;99830.28;;;5.73
73734;BMP280;62039;50.000;9.064;2023-03-11T14:19:23;99835.72;;;5.70
73734;BMP280;62039;50.000;9.064;2023-03-11T14:21:51;99830.66;;;5.68
73734;BMP280;62039;50.000;9.064;2023-03-11T14:24:21;99837.09;;;5.64
73734;BMP280;62039;50.000;9.064;2023-03-11T14:26:49;99834.13;;;5.59
73734;BMP280;62039;50.000;9.064;2023-03-11T14:29:17;99832.75;;;5.55
73734;BMP280;62039;50.000;9.064;2023-03-11T14:31:45;99837.41;;;5.52
73734;BMP280;62039;50.000;9.064;2023-03-11T14:34:14;99827.31;;;5.48
73734;BMP280;62039;50.000;9.064;2023-03-11T14:36:42;99829.25;;;5.46